createdAt,value
2022-11-26T00:01:21.537Z,101040.05
2022-11-26T00:03:49.963Z,101043.83
2022-11-26T00:06:35.392Z,101045.73
2022-11-26T00:09:07.243Z,101046.58
2022-11-26T00:11:35.583Z,101047.29
2022-11-26T00:14:05.841Z,101046.43
2022-11-26T00:16:34.025Z,101049.70
2022-11-26T00:19:02.348Z,101050.55
2022-11-26T00:21:33.872Z,101053.98
2022-11-26T00:24:03.282Z,101051.41
2022-11-26T00:26:32.362Z,101051.59
2022-11-26T00:29:01.021Z,101058.30
2022-11-26T00:31:29.634Z,101057.94
2022-11-26T00:33:58.281Z,101056.91
2022-11-26T00:36:30.460Z,101055.19
2022-11-26T00:39:23.791Z,101061.35
2022-11-26T00:41:53.496Z,101062.89
2022-11-26T00:44:25.644Z,101062.37
2022-11-26T00:46:53.806Z,101062.55
2022-11-26T00:49:22.632Z,101064.27
2022-11-26T00:51:50.912Z,101065.81
2022-11-26T00:54:19.778Z,101067.17
2022-11-26T00:56:48.647Z,101067.84
2022-11-26T00:59:21.883Z,101065.45
2022-11-26T01:01:50.502Z,101065.98
2022-11-26T01:04:18.753Z,101063.86
2022-11-26T01:06:47.105Z,101061.64
2022-11-26T01:09:20.706Z,101063.38
2022-11-26T01:11:53.658Z,101061.83
2022-11-26T01:14:23.595Z,101061.48
2022-11-26T01:16:55.027Z,101064.58
2022-11-26T01:19:23.359Z,101062.02
2022-11-26T01:21:52.066Z,101059.95
2022-11-26T01:24:20.428Z,101064.75
2022-11-26T01:26:48.562Z,101063.86
2022-11-26T01:29:18.641Z,101069.16
2022-11-26T01:31:47.905Z,101070.02
2022-11-26T01:34:16.194Z,101069.16
2022-11-26T01:36:44.761Z,101077.95
2022-11-26T01:39:20.878Z,101081.09
2022-11-26T01:42:16.782Z,101079.21
2022-11-26T01:44:45.034Z,101076.47
2022-11-26T01:47:23.896Z,101080.77
2022-11-26T01:50:34.210Z,101078.52
2022-11-26T01:53:12.651Z,101082.19
2022-11-26T01:55:46.658Z,101082.88
2022-11-26T01:58:19.790Z,101086.84
2022-11-26T02:00:50.372Z,101086.34
2022-11-26T02:03:24.105Z,101088.23
2022-11-26T02:05:59.618Z,101089.79
2022-11-26T02:08:31.485Z,101088.09
2022-11-26T02:10:59.765Z,101087.05
2022-11-26T02:13:29.167Z,101089.63
2022-11-26T02:16:07.866Z,101090.15
2022-11-26T02:18:41.632Z,101089.64
2022-11-26T02:21:19.011Z,101088.23
2022-11-26T02:24:12.825Z,101090.62
2022-11-26T02:27:07.916Z,101088.73
2022-11-26T02:29:57.677Z,101090.79
2022-11-26T02:32:47.231Z,101089.39
2022-11-26T02:35:35.998Z,101090.42
2022-11-26T02:38:10.240Z,101091.10
2022-11-26T02:40:38.449Z,101093.52
2022-11-26T02:43:06.710Z,101094.52
2022-11-26T02:45:41.335Z,101094.37
2022-11-26T02:48:20.187Z,101093.00
2022-11-26T02:50:57.102Z,101092.34
2022-11-26T02:53:29.739Z,101094.05
2022-11-26T02:56:05.616Z,101094.38
2022-11-26T02:58:34.736Z,101092.84
2022-11-26T03:01:07.417Z,101095.44
2022-11-26T03:03:40.827Z,101098.38
2022-11-26T03:06:13.258Z,101100.45
2022-11-26T03:08:43.980Z,101102.34
2022-11-26T03:11:12.999Z,101104.23
2022-11-26T03:13:41.408Z,101110.92
2022-11-26T03:16:10.084Z,101113.00
2022-11-26T03:18:38.361Z,101116.09
2022-11-26T03:21:06.798Z,101118.48
2022-11-26T03:23:35.669Z,101121.23
2022-11-26T03:26:03.961Z,101126.73
2022-11-26T03:28:32.753Z,101126.22
2022-11-26T03:31:01.062Z,101131.73
2022-11-26T03:33:29.350Z,101127.61
2022-11-26T03:35:57.552Z,101133.96
2022-11-26T03:38:26.096Z,101136.20
2022-11-26T03:40:59.240Z,101137.94
2022-11-26T03:43:27.759Z,101139.98
2022-11-26T03:45:55.930Z,101143.23
2022-11-26T03:48:24.430Z,101141.51
2022-11-26T03:50:52.773Z,101143.58
2022-11-26T03:53:20.996Z,101146.33
2022-11-26T03:55:49.265Z,101142.73
2022-11-26T03:58:17.519Z,101145.46
2022-11-26T04:00:45.767Z,101147.02
2022-11-26T04:03:14.397Z,101145.30
2022-11-26T04:05:42.735Z,101147.19
2022-11-26T04:08:10.948Z,101144.79
2022-11-26T04:10:40.710Z,101143.91
2022-11-26T04:13:09.037Z,101145.80
2022-11-26T04:15:37.226Z,101149.21
2022-11-26T04:18:06.067Z,101150.42
2022-11-26T04:20:34.374Z,101156.25
2022-11-26T04:23:02.584Z,101155.91
2022-11-26T04:25:31.085Z,101159.02
2022-11-26T04:27:59.531Z,101159.05
2022-11-26T04:30:29.925Z,101159.74
2022-11-26T04:32:58.785Z,101158.90
2022-11-26T04:35:27.075Z,101162.69
2022-11-26T04:37:55.275Z,101166.64
2022-11-26T04:40:24.175Z,101169.55
2022-11-26T04:42:52.551Z,101174.55
2022-11-26T04:45:20.760Z,101174.89
2022-11-26T04:47:49.092Z,101172.47
2022-11-26T04:50:17.478Z,101173.33
2022-11-26T04:52:48.631Z,101175.71
2022-11-26T04:55:18.265Z,101177.96
2022-11-26T04:57:49.332Z,101179.69
2022-11-26T05:00:19.110Z,101181.24
2022-11-26T05:02:47.557Z,101184.69
2022-11-26T05:05:16.238Z,101182.30
2022-11-26T05:07:44.805Z,101188.64
2022-11-26T05:10:13.449Z,101186.92
2022-11-26T05:12:41.836Z,101189.61
2022-11-26T05:15:10.452Z,101192.65
2022-11-26T05:17:39.080Z,101191.64
2022-11-26T05:20:08.492Z,101193.55
2022-11-26T05:22:36.746Z,101197.00
2022-11-26T05:25:05.480Z,101195.83
2022-11-26T05:27:33.852Z,101197.70
2022-11-26T05:30:02.947Z,101202.35
2022-11-26T05:32:31.552Z,101203.21
2022-11-26T05:35:00.439Z,101206.82
2022-11-26T05:37:28.886Z,101208.50
2022-11-26T05:39:57.233Z,101208.33
2022-11-26T05:42:25.656Z,101206.98
2022-11-26T05:44:53.828Z,101208.71
2022-11-26T05:47:22.222Z,101210.63
2022-11-26T05:49:50.502Z,101209.61
2022-11-26T05:52:19.016Z,101210.11
2022-11-26T05:54:47.443Z,101212.37
2022-11-26T05:57:15.812Z,101213.56
2022-11-26T05:59:44.465Z,101217.98
2022-11-26T06:02:12.962Z,101225.90
2022-11-26T06:04:41.608Z,101228.98
2022-11-26T06:07:10.644Z,101234.95
2022-11-26T06:09:39.483Z,101240.60
2022-11-26T06:12:08.104Z,101246.31
2022-11-26T06:14:40.335Z,101247.55
2022-11-26T06:17:11.943Z,101251.70
2022-11-26T06:19:40.357Z,101252.92
2022-11-26T06:22:08.574Z,101252.77
2022-11-26T06:24:37.375Z,101259.63
2022-11-26T06:27:05.923Z,101257.39
2022-11-26T06:29:34.188Z,101258.44
2022-11-26T06:32:02.695Z,101258.98
2022-11-26T06:34:31.040Z,101263.45
2022-11-26T08:07:02.589Z,101331.14
2022-11-26T08:09:31.413Z,101335.55
2022-11-26T08:11:59.625Z,101339.26
2022-11-26T08:14:28.220Z,101345.38
2022-11-26T08:16:57.601Z,101350.83
2022-11-26T08:19:26.191Z,101355.23
2022-11-26T08:21:54.913Z,101354.11
2022-11-26T08:24:23.883Z,101352.78
2022-11-26T08:26:52.142Z,101358.05
2022-11-26T08:29:20.739Z,101362.19
2022-11-26T08:31:49.050Z,101363.73
2022-11-26T08:34:18.546Z,101366.81
2022-11-26T08:36:46.878Z,101367.13
2022-11-26T08:39:17.538Z,101366.63
2022-11-26T08:41:51.978Z,101370.24
2022-11-26T08:44:21.966Z,101373.70
2022-11-26T08:46:50.765Z,101374.20
2022-11-26T08:49:18.962Z,101374.19
2022-11-26T08:51:47.313Z,101376.39
2022-11-26T08:54:15.500Z,101382.40
2022-11-26T08:56:43.748Z,101381.19
2022-11-26T08:59:12.206Z,101382.56
2022-11-26T09:01:40.807Z,101384.55
2022-11-26T09:04:09.141Z,101384.81
2022-11-26T09:06:38.029Z,101390.50
2022-11-26T09:09:13.697Z,101390.03
2022-11-26T09:11:50.193Z,101392.44
2022-11-26T09:14:21.063Z,101393.14
2022-11-26T09:16:49.654Z,101391.11
2022-11-26T09:19:18.528Z,101388.02
2022-11-26T09:21:47.282Z,101392.83
2022-11-26T09:24:17.472Z,101391.15
2022-11-26T09:26:46.536Z,101391.54
2022-11-26T09:29:17.669Z,101391.41
2022-11-26T09:32:15.363Z,101393.38
2022-11-26T09:34:36.066Z,101389.13
2022-11-26T09:37:04.742Z,101391.73
2022-11-26T09:39:33.197Z,101394.65
2022-11-26T09:42:08.962Z,101399.17
2022-11-26T09:45:01.864Z,101403.68
2022-11-26T09:47:48.868Z,101405.61
2022-11-26T09:50:24.865Z,101408.91
2022-11-26T09:53:10.311Z,101413.23
2022-11-26T09:55:43.570Z,101413.09
2022-11-26T09:58:25.263Z,101414.84
2022-11-26T10:00:59.601Z,101415.73
2022-11-26T10:03:34.176Z,101418.70
2022-11-26T10:06:27.500Z,101421.81
2022-11-26T10:09:16.793Z,101419.58
2022-11-26T10:12:16.261Z,101420.61
2022-11-26T10:15:03.508Z,101420.80
2022-11-26T10:18:07.292Z,101420.30
2022-11-26T10:21:51.698Z,101420.63
2022-11-26T10:24:41.184Z,101416.88
2022-11-26T10:27:21.444Z,101415.30
2022-11-26T10:29:54.411Z,101414.25
2022-11-26T10:32:38.577Z,101414.73
2022-11-26T10:35:07.142Z,101410.63
2022-11-26T10:37:35.426Z,101407.59
2022-11-26T10:40:24.488Z,101411.27
2022-11-26T10:43:10.979Z,101416.32
2022-11-26T10:45:46.750Z,101418.46
2022-11-26T10:48:15.064Z,101424.02
2022-11-26T10:51:14.303Z,101424.04
2022-11-26T10:53:52.496Z,101427.85
2022-11-26T10:56:27.260Z,101430.79
2022-11-26T10:59:03.881Z,101431.30
2022-11-26T11:01:36.870Z,101428.04
2022-11-26T11:04:24.524Z,101433.72
2022-11-26T11:06:53.575Z,101435.46
2022-11-26T11:09:26.579Z,101434.08
2022-11-26T11:12:13.721Z,101434.59
2022-11-26T11:14:43.670Z,101435.28
2022-11-26T11:17:25.118Z,101436.50
2022-11-26T11:19:53.416Z,101432.88
2022-11-26T11:22:22.408Z,101435.29
2022-11-26T11:24:51.044Z,101442.34
2022-11-26T11:27:39.589Z,101445.08
2022-11-26T11:30:25.460Z,101444.16
2022-11-26T11:33:09.498Z,101450.84
2022-11-26T11:35:38.050Z,101451.17
2022-11-26T11:38:24.307Z,101455.64
2022-11-26T11:40:53.474Z,101453.93
2022-11-26T11:43:23.978Z,101457.55
2022-11-26T11:46:13.723Z,101458.58
2022-11-26T11:48:57.808Z,101460.81
2022-11-26T11:51:36.687Z,101460.64
2022-11-26T11:54:27.594Z,101462.87
2022-11-26T11:57:12.133Z,101463.89
2022-11-26T12:00:12.036Z,101458.36
2022-11-26T12:03:05.559Z,101458.36
2022-11-26T12:05:45.904Z,101455.27
2022-11-26T12:08:41.381Z,101454.58
2022-11-26T12:11:45.793Z,101456.30
2022-11-26T12:14:55.636Z,101457.84
2022-11-26T12:17:35.937Z,101457.15
2022-11-26T12:20:30.349Z,101462.14
2022-11-26T12:23:13.166Z,101462.31
2022-11-26T12:25:45.702Z,101459.40
2022-11-26T12:28:24.388Z,101461.11
2022-11-26T12:31:01.780Z,101458.54
2022-11-26T12:33:33.429Z,101459.06
2022-11-26T12:36:28.984Z,101457.36
2022-11-26T12:39:02.374Z,101456.67
2022-11-26T12:41:46.213Z,101462.02
2022-11-26T12:44:42.078Z,101460.48
2022-11-26T12:47:22.290Z,101457.73
2022-11-26T12:50:17.573Z,101453.23
2022-11-26T12:53:28.190Z,101455.28
2022-11-26T12:56:04.365Z,101461.31
2022-11-26T12:58:53.653Z,101465.61
2022-11-26T13:01:24.409Z,101465.07
2022-11-26T13:04:03.356Z,101470.59
2022-11-26T13:06:52.388Z,101472.45
2022-11-26T13:09:23.283Z,101470.55
2022-11-26T13:12:08.708Z,101473.46
2022-11-26T13:15:02.714Z,101473.08
2022-11-26T13:17:46.001Z,101470.11
2022-11-26T13:20:31.703Z,101475.79
2022-11-26T13:23:18.644Z,101478.04
2022-11-26T13:26:02.605Z,101477.16
2022-11-26T13:29:07.156Z,101477.84
2022-11-26T13:31:52.618Z,101475.42
2022-11-26T13:34:43.362Z,101472.34
2022-11-26T13:37:21.043Z,101474.06
2022-11-26T13:40:08.706Z,101473.38
2022-11-26T13:42:45.792Z,101474.06
2022-11-26T13:45:38.339Z,101477.32
2022-11-26T13:48:58.890Z,101474.92
2022-11-26T13:51:48.557Z,101473.89
2022-11-26T13:54:24.554Z,101480.77
2022-11-26T13:57:15.910Z,101486.27
2022-11-26T13:59:50.220Z,101488.11
2022-11-26T14:02:34.672Z,101494.48
2022-11-26T14:05:15.251Z,101495.48
2022-11-26T14:07:45.667Z,101494.77
2022-11-26T14:10:36.067Z,101499.94
2022-11-26T14:13:05.044Z,101499.79
2022-11-26T14:15:42.805Z,101498.76
2022-11-26T14:18:16.597Z,101503.05
2022-11-26T14:20:59.903Z,101505.97
2022-11-26T14:23:51.519Z,101508.02
2022-11-26T14:26:38.453Z,101507.66
2022-11-26T14:29:12.966Z,101511.45
2022-11-26T14:31:51.703Z,101507.14
2022-11-26T14:34:39.408Z,101510.76
2022-11-26T14:37:28.662Z,101517.64
2022-11-26T14:40:09.224Z,101514.89
2022-11-26T14:42:37.356Z,101516.44
2022-11-26T14:45:22.586Z,101517.47
2022-11-26T14:47:52.938Z,101517.13
2022-11-26T14:50:23.779Z,101520.38
2022-11-26T14:52:58.020Z,101522.59
2022-11-26T14:55:30.579Z,101525.33
2022-11-26T14:58:24.641Z,101527.36
2022-11-26T15:01:23.172Z,101528.73
2022-11-26T15:03:57.262Z,101528.22
2022-11-26T15:06:38.453Z,101534.19
2022-11-26T15:09:18.687Z,101533.98
2022-11-26T15:11:51.234Z,101534.48
2022-11-26T15:14:25.304Z,101538.23
2022-11-26T15:16:57.561Z,101539.41
2022-11-26T15:19:27.604Z,101543.85
2022-11-26T15:21:56.177Z,101548.12
2022-11-26T15:24:25.086Z,101548.27
2022-11-26T15:26:53.336Z,101550.62
2022-11-26T15:29:36.814Z,101550.23
2022-11-26T15:32:05.369Z,101551.58
2022-11-26T15:34:34.265Z,101546.55
2022-11-26T15:37:04.363Z,101544.27
2022-11-26T15:39:32.688Z,101545.25
2022-11-26T15:42:22.745Z,101546.23
2022-11-26T15:44:51.092Z,101549.81
2022-11-26T15:47:22.109Z,101548.59
2022-11-26T15:49:58.145Z,101548.41
2022-11-26T15:52:32.657Z,101552.02
2022-11-26T15:55:12.478Z,101552.02
2022-11-26T15:57:42.187Z,101550.65
2022-11-26T16:00:33.623Z,101551.34
2022-11-26T16:03:03.079Z,101549.79
2022-11-26T16:05:38.731Z,101553.39
2022-11-26T16:08:25.799Z,101558.36
2022-11-26T16:10:55.832Z,101564.88
2022-11-26T16:13:32.246Z,101562.46
2022-11-26T16:16:09.845Z,101564.53
2022-11-26T16:18:59.762Z,101564.35
2022-11-26T16:31:49.124Z,101561.09
2022-11-26T16:34:17.406Z,101565.02
2022-11-26T16:36:46.159Z,101566.09
2022-11-26T16:39:16.588Z,101567.82
2022-11-26T16:41:44.825Z,101569.71
2022-11-26T16:44:12.964Z,101570.76
2022-11-26T16:46:41.620Z,101568.88
2022-11-26T16:49:10.917Z,101563.19
2022-11-26T16:51:39.126Z,101564.66
2022-11-26T16:54:07.672Z,101567.37
2022-11-26T16:56:38.390Z,101569.95
2022-11-26T16:59:22.435Z,101570.66
2022-11-26T17:01:50.749Z,101569.64
2022-11-26T17:04:19.381Z,101573.42
2022-11-26T17:06:47.786Z,101575.19
2022-11-26T17:09:19.142Z,101579.35
2022-11-26T17:11:47.503Z,101581.98
2022-11-26T17:14:16.089Z,101583.91
2022-11-26T17:16:44.346Z,101584.61
2022-11-26T17:19:13.937Z,101584.30
2022-11-26T17:21:42.233Z,101586.85
2022-11-26T17:24:10.457Z,101587.55
2022-11-26T17:26:38.685Z,101590.66
2022-11-26T17:29:07.224Z,101588.93
2022-11-26T17:31:35.593Z,101587.20
2022-11-26T17:34:03.930Z,101584.80
2022-11-26T17:36:36.660Z,101586.70
2022-11-26T17:39:05.280Z,101587.57
2022-11-26T17:41:33.704Z,101586.19
2022-11-26T17:44:02.474Z,101590.66
2022-11-26T17:46:35.714Z,101586.16
2022-11-26T17:49:17.080Z,101589.60
2022-11-26T17:51:45.279Z,101592.20
2022-11-26T17:54:13.467Z,101588.63
2022-11-26T17:56:41.885Z,101588.61
2022-11-26T17:59:10.063Z,101586.52
2022-11-26T18:01:38.371Z,101585.02
2022-11-26T18:04:06.945Z,101585.23
2022-11-26T18:07:05.751Z,101586.77
2022-11-26T18:09:35.017Z,101587.64
2022-11-26T18:12:04.400Z,101587.49
2022-11-26T18:14:35.942Z,101585.46
2022-11-26T18:17:05.198Z,101583.05
2022-11-26T18:19:33.816Z,101584.28
2022-11-26T18:22:02.135Z,101585.68
2022-11-26T18:24:31.321Z,101584.69
2022-11-26T18:27:00.102Z,101583.52
2022-11-26T18:29:30.436Z,101580.26
2022-11-26T18:31:58.858Z,101576.48
2022-11-26T18:34:27.094Z,101574.77
2022-11-26T18:36:55.460Z,101571.84
2022-11-26T18:39:23.834Z,101572.02
2022-11-26T18:41:54.553Z,101577.73
2022-11-26T18:44:26.157Z,101577.55
2022-11-26T18:46:54.297Z,101585.83
2022-11-26T18:49:22.736Z,101587.38
2022-11-26T18:51:51.161Z,101585.84
2022-11-26T18:54:19.734Z,101581.34
2022-11-26T18:56:47.922Z,101577.19
2022-11-26T18:59:16.794Z,101577.70
2022-11-26T19:01:46.874Z,101581.31
2022-11-26T19:04:15.058Z,101582.19
2022-11-26T19:06:43.569Z,101583.74
2022-11-26T19:09:17.203Z,101582.31
2022-11-26T19:11:48.150Z,101583.42
2022-11-26T19:14:16.377Z,101585.34
2022-11-26T19:16:44.590Z,101591.89
2022-11-26T19:19:13.274Z,101591.02
2022-11-26T19:21:42.025Z,101592.08
2022-11-26T19:24:11.615Z,101592.76
2022-11-26T19:26:43.301Z,101593.79
2022-11-26T19:29:12.396Z,101593.42
2022-11-26T19:31:40.935Z,101590.30
2022-11-26T19:34:13.862Z,101588.20
2022-11-26T19:36:43.031Z,101593.34
2022-11-26T19:39:11.184Z,101598.31
2022-11-26T19:41:39.524Z,101597.30
2022-11-26T19:44:07.898Z,101596.62
2022-11-26T19:46:41.378Z,101600.07
2022-11-26T19:49:13.002Z,101599.73
2022-11-26T19:51:41.734Z,101605.02
2022-11-26T19:54:10.630Z,101608.95
2022-11-26T19:56:39.041Z,101613.95
2022-11-26T19:59:08.288Z,101616.16
2022-11-26T20:01:36.481Z,101613.75
2022-11-26T20:04:07.290Z,101612.89
2022-11-26T20:06:36.739Z,101605.33
2022-11-26T20:09:07.304Z,101609.42
2022-11-26T20:11:37.753Z,101611.97
2022-11-26T20:14:10.796Z,101613.52
2022-11-26T20:16:42.413Z,101612.48
2022-11-26T20:19:12.530Z,101614.71
2022-11-26T20:21:40.743Z,101616.10
2022-11-26T20:24:13.544Z,101614.88
2022-11-26T20:26:44.170Z,101618.33
2022-11-26T20:29:14.776Z,101621.41
2022-11-26T20:31:46.012Z,101620.21
2022-11-26T20:34:15.725Z,101620.38
2022-11-26T20:36:44.720Z,101622.98
2022-11-26T20:39:19.196Z,101623.16
2022-11-26T20:41:47.738Z,101622.48
2022-11-26T20:44:16.490Z,101620.27
2022-11-26T20:46:45.053Z,101616.52
2022-11-26T20:49:16.053Z,101616.16
2022-11-26T20:51:44.300Z,101617.04
2022-11-26T20:54:13.159Z,101617.92
2022-11-26T20:56:41.370Z,101618.13
2022-11-26T20:59:10.027Z,101623.16
2022-11-26T21:01:39.272Z,101624.73
2022-11-26T21:04:08.263Z,101625.42
2022-11-26T21:06:36.661Z,101624.08
2022-11-26T21:09:06.705Z,101621.20
2022-11-26T21:11:35.604Z,101617.41
2022-11-26T21:14:04.674Z,101615.32
2022-11-26T21:16:34.248Z,101617.26
2022-11-26T21:19:02.578Z,101612.61
2022-11-26T21:21:30.932Z,101611.92
2022-11-26T21:23:59.485Z,101610.64
2022-11-26T21:26:27.999Z,101615.96
2022-11-26T21:28:58.662Z,101622.86
2022-11-26T21:31:29.230Z,101623.09
2022-11-26T21:34:00.863Z,101625.03
2022-11-26T21:36:31.761Z,101622.67
2022-11-26T21:39:00.388Z,101619.57
2022-11-26T21:41:33.959Z,101617.95
2022-11-26T21:44:04.018Z,101616.61
2022-11-26T21:46:38.226Z,101619.24
2022-11-26T21:49:08.510Z,101622.21
2022-11-26T21:51:37.556Z,101621.91
2022-11-26T21:54:05.865Z,101620.35
2022-11-26T21:56:34.485Z,101621.07
2022-11-26T21:59:02.900Z,101617.98
2022-11-26T22:01:36.392Z,101615.95
2022-11-26T22:04:12.639Z,101614.39
2022-11-26T22:06:41.965Z,101612.84
2022-11-26T22:09:10.649Z,101610.80
2022-11-26T22:11:41.954Z,101609.10
2022-11-26T22:14:14.445Z,101606.70
2022-11-26T22:16:43.234Z,101615.96
2022-11-26T22:19:13.316Z,101619.39
2022-11-26T22:21:42.942Z,101618.71
2022-11-26T22:24:15.228Z,101617.16
2022-11-26T22:26:44.947Z,101621.65
2022-11-26T22:29:18.238Z,101629.23
2022-11-26T22:31:48.557Z,101630.12
2022-11-26T22:34:18.853Z,101627.88
2022-11-26T22:36:47.124Z,101627.35
2022-11-26T22:39:17.775Z,101631.81
2022-11-26T22:41:47.635Z,101630.58
2022-11-26T22:44:17.039Z,101628.68
2022-11-26T22:46:45.969Z,101630.06
2022-11-26T22:49:16.219Z,101628.35
2022-11-26T22:51:44.772Z,101624.04
2022-11-26T22:54:15.953Z,101625.91
2022-11-26T22:56:44.244Z,101628.14
2022-11-26T22:59:14.576Z,101629.34
2022-11-26T23:01:42.958Z,101630.23
2022-11-26T23:04:11.826Z,101631.60
2022-11-26T23:06:40.611Z,101634.88
2022-11-26T23:09:10.479Z,101635.04
2022-11-26T23:11:40.889Z,101631.27
2022-11-26T23:14:12.209Z,101628.70
2022-11-26T23:16:43.154Z,101627.34
2022-11-26T23:19:16.499Z,101626.67
2022-11-26T23:21:46.844Z,101625.30
2022-11-26T23:24:16.572Z,101628.73
2022-11-26T23:26:45.937Z,101625.81
2022-11-26T23:29:14.743Z,101627.88
2022-11-26T23:31:44.514Z,101631.52
2022-11-26T23:34:14.163Z,101633.91
2022-11-26T23:36:42.390Z,101634.43
2022-11-26T23:39:13.435Z,101630.46
2022-11-26T23:41:42.169Z,101632.36
2022-11-26T23:44:10.609Z,101629.45
2022-11-26T23:46:39.109Z,101633.42
2022-11-26T23:49:07.556Z,101635.48
2022-11-26T23:51:35.763Z,101636.55
2022-11-26T23:54:04.228Z,101634.64
2022-11-26T23:56:34.777Z,101631.19
2022-11-26T23:59:04.842Z,101628.96
